Time;durP1;ratioP1;P1;durP2;ratioP2;P2;SDS_P1;SDS_P2;PMS_P1;PMS_P2;Temp;Humidity;BMP_temperature;BMP_pressure;BME280_temperature;BME280_humidity;BME280_pressure;Samples;Min_cycle;Max_cycle;Signal;HPM_P1;HPM_P2
2023/02/13 00:02:41;;;;;;;15.17;6.80;;;;;;;5.11;100.00;102635.45;4832158;58;1141030;-69
2023/02/13 00:07:47;;;;;;;12.50;6.50;;;;;;;5.11;100.00;102635.00;4740265;61;1140887;-68
2023/02/13 00:12:53;;;;;;;12.97;4.87;;;;;;;5.13;100.00;102629.73;4735982;61;1141142;-70
2023/02/13 00:17:59;;;;;;;14.67;6.13;;;;;;;5.13;100.00;102624.03;4719589;61;1141039;-69
2023/02/13 00:23:04;;;;;;;13.57;5.43;;;;;;;5.16;100.00;102627.05;4720028;61;1140989;-70
2023/02/13 00:28:10;;;;;;;5.93;4.07;;;;;;;5.18;100.00;102621.33;4738137;61;1141205;-67
2023/02/13 00:33:20;;;;;;;9.60;5.15;;;;;;;5.21;100.00;102614.22;4719714;60;1138818;-70
2023/02/13 00:38:26;;;;;;;10.85;5.03;;;;;;;5.19;100.00;102611.25;4786118;60;1139100;-67
2023/02/13 00:43:32;;;;;;;7.43;4.47;;;;;;;5.25;100.00;102605.84;4881620;59;1141187;-70
2023/02/13 00:48:39;;;;;;;12.30;4.30;;;;;;;5.25;100.00;102605.84;4858492;59;1138813;-69
2023/02/13 00:53:44;;;;;;;11.90;4.45;;;;;;;5.26;100.00;102601.88;4871662;59;1141130;-70
2023/02/13 00:58:50;;;;;;;11.70;3.73;;;;;;;5.28;100.00;102608.41;4876831;59;1141261;-69
2023/02/13 01:03:56;;;;;;;5.93;3.57;;;;;;;5.30;100.00;102607.48;4827126;59;1141174;-68
2023/02/13 01:09:04;;;;;;;11.90;4.50;;;;;;;5.33;100.00;102600.45;4786564;61;1138999;-70
2023/02/13 01:14:10;;;;;;;13.27;5.27;;;;;;;5.25;100.00;102592.28;4809584;60;1141137;-69
2023/02/13 01:19:19;;;;;;;12.87;4.87;;;;;;;5.25;100.00;102592.28;4791958;61;1259436;-68
2023/02/13 01:24:28;;;;;;;8.23;5.10;;;;;;;5.27;100.00;102606.68;4792429;61;1141097;-67
2023/02/13 01:29:33;;;;;;;9.58;4.65;;;;;;;5.26;100.00;102600.57;4791322;61;1139120;-68
2023/02/13 01:34:40;;;;;;;14.30;4.83;;;;;;;5.26;100.00;102595.32;4809393;60;1139211;-70
2023/02/13 01:39:47;;;;;;;13.33;6.13;;;;;;;5.25;100.00;102597.98;4849128;59;1141228;-69
2023/02/13 01:44:59;;;;;;;10.63;4.60;;;;;;;5.21;100.00;102606.36;4858116;59;1141001;-69
2023/02/13 01:50:41;;;;;;;14.07;4.57;;;;;;;5.19;100.00;102599.45;4877184;59;1141326;-70
2023/02/13 01:55:52;;;;;;;12.40;4.80;;;;;;;5.15;100.00;102587.28;4870959;58;1140972;-69
2023/02/13 02:00:59;;;;;;;11.10;5.70;;;;;;;5.12;100.00;102584.27;4871068;59;1140942;-69
2023/02/13 02:06:11;;;;;;;16.30;5.87;;;;;;;5.11;100.00;102587.79;4834547;60;1141007;-66
2023/02/13 02:11:30;;;;;;;11.80;6.10;;;;;;;5.10;100.00;102572.95;4819425;61;1141040;-68
2023/02/13 02:16:35;;;;;;;13.83;5.87;;;;;;;5.12;100.00;102574.23;4807865;61;1140946;-69
2023/02/13 02:22:20;;;;;;;12.00;6.37;;;;;;;5.10;100.00;102568.16;4791144;60;1141080;-70
2023/02/13 02:27:43;;;;;;;11.63;5.67;;;;;;;5.07;100.00;102565.14;4791730;60;1141359;-67
2023/02/13 02:32:58;;;;;;;;;;;;;;;5.08;100.00;102569.49;4852549;60;1141339;-70
2023/02/13 02:38:19;;;;;;;16.53;7.83;;;;;;;5.08;100.00;102569.49;4829572;59;976241;-67
2023/02/13 02:43:46;;;;;;;15.77;9.00;;;;;;;5.10;100.00;102560.28;4710026;62;1138919;-68
2023/02/13 02:55:06;;;;;;;20.27;10.03;;;;;;;5.08;100.00;102565.56;4792078;60;1143276;-68
2023/02/13 03:33:31;;;;;;;15.00;7.53;;;;;;;5.16;100.00;102555.78;4818852;60;1143069;-70
2023/02/13 03:39:08;;;;;;;13.78;7.50;;;;;;;5.14;100.00;102558.02;4812328;60;1141165;-68
2023/02/13 03:44:24;;;;;;;10.97;7.23;;;;;;;5.14;100.00;102558.02;4737729;62;1141179;-68
2023/02/13 04:00:47;;;;;;;8.33;6.15;;;;;;;5.17;100.00;102547.02;4793740;61;1141221;-67
2023/02/13 04:06:03;;;;;;;14.93;5.80;;;;;;;5.21;100.00;102549.95;4814762;60;1139085;-71
2023/02/13 04:11:25;;;;;;;10.80;4.90;;;;;;;5.22;100.00;102552.13;4784586;61;1141010;-69
2023/02/13 04:16:49;;;;;;;6.53;4.58;;;;;;;5.22;100.00;102556.06;4833126;59;1141184;-68
2023/02/13 04:22:01;;;;;;;13.67;5.90;;;;;;;5.24;100.00;102563.45;4827310;60;1139008;-70
2023/02/13 04:27:07;;;;;;;8.63;4.53;;;;;;;5.22;100.00;102562.17;4876519;58;1141155;-69
2023/02/13 04:32:13;;;;;;;6.58;4.00;;;;;;;5.23;100.00;102557.34;4824817;59;1138926;-69
2023/02/13 04:37:19;;;;;;;9.97;4.57;;;;;;;5.23;100.00;102569.59;4810901;59;1139176;-67
2023/02/13 04:42:25;;;;;;;7.80;3.90;;;;;;;5.23;100.00;102569.59;4795468;61;1139111;-68
2023/02/13 04:47:31;;;;;;;6.97;3.20;;;;;;;5.24;100.00;102563.45;4811254;61;1139148;-69
2023/02/13 04:52:37;;;;;;;5.53;3.20;;;;;;;5.26;100.00;102562.98;4798863;60;1139001;-70
2023/02/13 04:57:43;;;;;;;4.27;3.60;;;;;;;5.27;100.00;102568.19;4744632;61;1138993;-69
2023/02/13 05:02:48;;;;;;;7.83;3.80;;;;;;;5.27;100.00;102571.27;4719426;60;1138965;-68
2023/02/13 05:07:54;;;;;;;7.83;4.30;;;;;;;5.30;100.00;102562.02;4714752;60;1139059;-67
2023/02/13 05:13:01;;;;;;;8.47;3.83;;;;;;;5.34;100.00;102562.81;4724080;60;1139029;-67
2023/02/13 05:18:07;;;;;;;6.67;3.23;;;;;;;5.37;100.00;102587.20;4729747;60;1139101;-70
2023/02/13 05:23:25;;;;;;;6.53;3.93;;;;;;;5.35;100.00;102577.66;4720687;58;1139135;-66
2023/02/13 05:33:55;;;;;;;9.85;5.80;;;;;;;5.29;100.00;102582.14;4756682;58;1138983;-66
2023/02/13 05:39:01;;;;;;;6.90;4.27;;;;;;;5.31;100.00;102578.17;4723217;60;1139553;-67
2023/02/13 05:44:08;;;;;;;9.40;5.17;;;;;;;5.30;100.00;102576.45;4706321;61;1139610;-70
2023/02/13 05:49:16;;;;;;;8.13;4.85;;;;;;;5.30;100.00;102585.63;4707634;61;1138955;-69
2023/02/13 05:54:21;;;;;;;7.97;5.23;;;;;;;5.30;100.00;102588.25;4698442;61;1139006;-69
2023/02/13 05:59:27;;;;;;;9.93;5.13;;;;;;;5.30;100.00;102586.94;4723151;61;1139067;-70
2023/02/13 06:04:33;;;;;;;7.90;4.53;;;;;;;5.32;100.00;102589.53;4705958;60;1139028;-69
2023/02/13 06:09:39;;;;;;;10.23;5.27;;;;;;;5.26;100.00;102586.14;4731656;60;1139086;-68
2023/02/13 06:14:44;;;;;;;7.07;4.90;;;;;;;5.24;100.00;102591.87;4747501;60;1141163;-70
2023/02/13 06:19:51;;;;;;;7.23;5.40;;;;;;;5.20;100.00;102581.47;4755405;58;1138893;-67
2023/02/13 06:24:56;;;;;;;7.37;4.30;;;;;;;5.18;100.00;102586.77;4725113;58;1138922;-68
2023/02/13 06:30:03;;;;;;;9.97;5.30;;;;;;;5.17;100.00;102598.61;4758967;58;1139099;-70
2023/02/13 06:35:10;;;;;;;6.67;4.77;;;;;;;5.20;100.00;102591.95;4858163;56;1138889;-67
2023/02/13 06:40:17;;;;;;;6.67;4.60;;;;;;;5.20;100.00;102591.95;4963890;56;1138900;-68
2023/02/13 06:45:22;;;;;;;8.75;5.12;;;;;;;5.21;100.00;102602.87;4968392;56;1138955;-67
2023/02/13 06:50:28;;;;;;;10.17;4.63;;;;;;;5.21;100.00;102607.66;4972238;56;1138821;-66
2023/02/13 06:55:35;;;;;;;7.57;4.50;;;;;;;5.21;100.00;102595.86;4994441;56;1140816;-66
2023/02/13 07:00:41;;;;;;;8.00;4.43;;;;;;;5.24;100.00;102604.12;4984885;56;1138734;-66
2023/02/13 07:05:50;;;;;;;9.17;4.30;;;;;;;5.22;100.00;102610.70;4913989;57;1138898;-70
2023/02/13 07:10:55;;;;;;;5.93;3.73;;;;;;;5.22;100.00;102608.09;4956215;56;1138977;-70
2023/02/13 07:16:04;;;;;;;7.67;3.67;;;;;;;5.23;100.00;102617.69;4953047;56;1139017;-67
2023/02/13 07:21:11;;;;;;;4.30;3.55;;;;;;;5.24;100.00;102616.79;4980250;57;1138956;-67
2023/02/13 07:26:17;;;;;;;6.15;4.30;;;;;;;5.24;100.00;102616.79;4959228;56;1138968;-69
2023/02/13 07:31:23;;;;;;;7.85;3.75;;;;;;;5.26;100.00;102633.81;4966499;56;1139029;-68
2023/02/13 07:36:29;;;;;;;8.30;3.05;;;;;;;5.29;100.00;102645.11;4976768;56;1138901;-66
2023/02/13 07:41:35;;;;;;;5.20;3.27;;;;;;;5.30;100.00;102636.79;4991164;56;1138890;-68
2023/02/13 07:46:40;;;;;;;4.90;3.10;;;;;;;5.29;100.00;102625.44;4938309;57;1136689;-68
2023/02/13 07:51:48;;;;;;;5.67;3.50;;;;;;;5.29;100.00;102645.11;4966236;56;1138886;-68
2023/02/13 07:56:53;;;;;;;6.17;4.23;;;;;;;5.30;100.00;102642.04;4973295;56;1139329;-69
2023/02/13 08:01:59;;;;;;;7.33;4.10;;;;;;;5.30;100.00;102631.09;4954106;56;1138950;-67
2023/02/13 08:07:05;;;;;;;10.77;3.30;;;;;;;5.32;100.00;102630.20;4936703;56;1139007;-68
2023/02/13 08:12:11;;;;;;;6.93;4.60;;;;;;;5.33;100.00;102626.23;4970980;56;1140961;-66
2023/02/13 08:17:17;;;;;;;7.47;4.00;;;;;;;5.35;100.00;102631.45;4966910;56;1138927;-70
2023/02/13 08:22:23;;;;;;;11.00;4.50;;;;;;;5.35;100.00;102628.83;4899555;57;1136775;-71
2023/02/13 08:27:29;;;;;;;5.42;2.90;;;;;;;5.36;100.00;102630.08;4863988;57;1141015;-68
2023/02/13 08:32:35;;;;;;;6.77;3.10;;;;;;;5.38;100.00;102631.36;4891383;57;1138989;-67
2023/02/13 08:37:41;;;;;;;6.07;2.43;;;;;;;5.40;100.00;102630.43;4951561;56;1138938;-67
2023/02/13 08:42:47;;;;;;;6.70;3.10;;;;;;;5.47;100.00;102628.09;4915267;57;1138835;-69
2023/02/13 08:47:58;;;;;;;6.73;2.90;;;;;;;5.47;100.00;102628.09;4973047;56;1139384;-66
2023/02/13 08:53:03;;;;;;;5.00;3.33;;;;;;;5.48;100.00;102630.27;4880473;57;1136720;-67
2023/02/13 08:58:09;;;;;;;8.47;3.33;;;;;;;5.50;100.00;102625.86;4866845;57;1138664;-67
2023/02/13 09:03:15;;;;;;;4.87;3.30;;;;;;;5.51;100.00;102623.62;4900047;58;1138928;-70
2023/02/13 09:08:21;;;;;;;5.07;2.93;;;;;;;5.50;100.00;102621.92;4935123;58;1136939;-69
2023/02/13 09:13:27;;;;;;;4.90;3.17;;;;;;;5.53;100.00;102617.44;4935182;58;1138996;-69
2023/02/13 09:18:34;;;;;;;8.08;2.98;;;;;;;5.56;100.00;102621.76;4882563;57;1138700;-66
2023/02/13 09:23:41;;;;;;;4.67;2.30;;;;;;;5.56;100.00;102624.38;4872761;59;1138706;-71
2023/02/13 09:28:47;;;;;;;5.23;3.20;;;;;;;5.54;100.00;102613.92;4855212;59;1136678;-69
2023/02/13 09:33:53;;;;;;;8.83;3.47;;;;;;;5.56;100.00;102621.76;4847816;59;1136663;-68
2023/02/13 09:38:59;;;;;;;4.97;2.90;;;;;;;5.58;100.00;102626.08;4941126;57;1139207;-66
2023/02/13 09:44:37;;;;;;;8.87;3.43;;;;;;;5.60;100.00;102633.48;4934284;57;1139124;-70
2023/02/13 09:49:47;;;;;;;6.60;2.97;;;;;;;5.60;100.00;102625.60;4853210;58;1137090;-65
2023/02/13 09:54:52;;;;;;;6.23;3.50;;;;;;;5.61;100.00;102626.47;4930977;57;1136992;-70
2023/02/13 10:00:14;;;;;;;7.40;2.60;;;;;;;5.61;100.00;102627.78;4953522;57;1136753;-69
2023/02/13 10:05:49;;;;;;;3.62;2.87;;;;;;;5.65;100.00;102633.37;4932946;57;1138975;-67
2023/02/13 10:11:24;;;;;;;3.97;2.07;;;;;;;5.66;100.00;102639.87;4854492;59;1138935;-67
2023/02/13 10:16:38;;;;;;;;;;;;;;;5.66;100.00;102637.25;4858593;59;1136697;-67
2023/02/13 10:21:59;;;;;;;6.47;2.80;;;;;;;5.67;100.00;102638.11;4873084;59;976136;-68
2023/02/13 10:27:21;;;;;;;3.07;2.17;;;;;;;5.68;100.00;102623.23;4873226;59;1134672;-66
2023/02/13 10:32:50;;;;;;;5.87;2.47;;;;;;;5.69;100.00;102619.70;4854466;59;1147645;-70
2023/02/13 10:37:59;;;;;;;4.33;2.30;;;;;;;5.70;100.00;102617.49;4911090;57;1138945;-70
2023/02/13 10:43:14;;;;;;;4.50;2.17;;;;;;;5.76;100.00;102619.98;4952930;57;1138777;-69
2023/02/13 10:48:44;;;;;;;5.37;2.87;;;;;;;5.78;100.00;102620.81;4934846;57;1137836;-69
2023/02/13 10:53:57;;;;;;;4.63;2.93;;;;;;;5.81;100.00;102620.27;4934223;57;1138954;-66
2023/02/13 10:59:11;;;;;;;5.40;2.60;;;;;;;5.83;100.00;102618.47;4934450;57;1138912;-70
2023/02/13 11:04:20;;;;;;;5.23;3.20;;;;;;;5.85;100.00;102607.94;5019312;56;1137092;-70
2023/02/13 11:09:27;;;;;;;7.43;3.07;;;;;;;5.85;100.00;102616.67;4945028;56;1136765;-69
2023/02/13 11:14:33;;;;;;;4.27;2.03;;;;;;;5.88;100.00;102606.55;4928816;57;1139104;-70
2023/02/13 11:19:53;;;;;;;7.00;2.97;;;;;;;5.91;100.00;102610.45;4947790;57;1138831;-69
2023/02/13 11:25:03;;;;;;;6.77;2.67;;;;;;;5.92;100.00;102614.81;4927794;57;1137083;-68
2023/02/13 11:30:37;;;;;;;4.37;2.80;;;;;;;5.96;100.00;102608.55;4921054;57;1138868;-71
2023/02/13 11:35:44;;;;;;;10.93;2.58;;;;;;;5.97;100.00;102603.27;4947672;56;1138809;-67
2023/02/13 11:40:57;;;;;;;5.27;2.40;;;;;;;5.97;100.00;102590.59;5028363;56;1138997;-68
2023/02/13 11:46:06;;;;;;;4.37;2.77;;;;;;;5.97;100.00;102588.83;5008751;56;1136597;-70
2023/02/13 11:51:12;;;;;;;2.90;2.67;;;;;;;6.02;100.00;102600.53;5009918;55;1138834;-65
2023/02/13 11:56:18;;;;;;;9.30;3.30;;;;;;;6.03;100.00;102603.58;5028871;56;1138734;-68
2023/02/13 12:01:28;;;;;;;4.55;3.20;;;;;;;6.03;100.00;102601.40;5009427;56;1136684;-68
2023/02/13 12:06:39;;;;;;;12.50;3.03;;;;;;;6.08;100.00;102599.53;4990783;56;1139170;-70
2023/02/13 12:11:46;;;;;;;9.55;2.85;;;;;;;6.12;100.00;102589.33;4947539;57;1140996;-70
2023/02/13 12:17:24;;;;;;;5.03;2.60;;;;;;;6.14;100.00;102587.08;4928775;57;1137007;-68
2023/02/13 12:22:34;;;;;;;12.13;2.90;;;;;;;6.18;100.00;102587.87;4918503;57;1139108;-70
2023/02/13 12:28:16;;;;;;;8.58;2.25;;;;;;;6.19;100.00;102576.01;4918929;57;1138857;-66
2023/02/13 12:34:17;;;;;;;7.00;2.20;;;;;;;6.23;100.00;102561.03;4935192;57;1136876;-69
2023/02/13 12:39:35;;;;;;;6.57;1.70;;;;;;;6.26;100.00;102575.41;4933177;56;1137095;-69
2023/02/13 12:44:54;;;;;;;4.27;1.90;;;;;;;6.26;100.00;102558.33;4893968;58;1136805;-69
2023/02/13 12:50:27;;;;;;;4.97;1.93;;;;;;;6.25;100.00;102548.72;4827386;58;1136832;-66
2023/02/13 12:56:07;;;;;;;7.33;2.47;;;;;;;6.22;100.00;102548.34;4926025;57;1136746;-69
2023/02/13 13:01:39;;;;;;;7.87;2.43;;;;;;;6.19;100.00;102551.05;5032125;56;1136835;-69
2023/02/13 13:07:25;;;;;;;7.77;2.00;;;;;;;6.17;100.00;102541.48;4977374;56;1136714;-70
2023/02/13 13:12:44;;;;;;;4.35;2.30;;;;;;;6.15;100.00;102524.89;4914239;57;1136825;-68
2023/02/13 13:18:23;;;;;;;2.53;1.80;;;;;;;6.08;100.00;102494.45;4993098;57;1136921;-69
2023/02/13 13:23:38;;;;;;;6.45;2.02;;;;;;;6.06;100.00;102497.12;4974055;57;1136756;-71
2023/02/13 13:28:49;;;;;;;3.33;1.63;;;;;;;6.06;100.00;102486.61;4973624;57;1137238;-69
2023/02/13 13:33:59;;;;;;;5.20;2.43;;;;;;;6.09;100.00;102490.92;4994464;57;1136964;-69
2023/02/13 13:39:21;;;;;;;15.83;4.67;;;;;;;6.11;100.00;102499.62;4899797;57;1136940;-67
2023/02/13 13:45:04;;;;;;;8.53;3.57;;;;;;;6.10;100.00;102513.67;4894687;58;1139104;-69
2023/02/13 13:50:25;;;;;;;6.63;4.37;;;;;;;6.10;100.00;102504.47;4942710;57;1136785;-69
2023/02/13 13:56:03;;;;;;;13.10;4.55;;;;;;;6.04;100.00;102523.02;4893677;58;1136767;-68
2023/02/13 14:01:26;;;;;;;12.77;4.57;;;;;;;6.02;100.00;102507.29;4911995;58;1141144;-70
2023/02/13 14:07:00;;;;;;;5.97;3.03;;;;;;;6.00;100.00;102520.46;4921987;56;1143651;-69
2023/02/13 14:12:33;;;;;;;6.55;3.55;;;;;;;5.98;100.00;102523.58;5028176;56;1136632;-66
2023/02/13 14:17:51;;;;;;;16.12;5.12;;;;;;;5.97;100.00;102512.66;5029678;56;1138911;-70
2023/02/13 14:23:17;;;;;;;7.97;3.97;;;;;;;5.97;100.00;102516.59;5048448;56;1138722;-70
2023/02/13 14:28:26;;;;;;;10.87;3.90;;;;;;;5.98;100.00;102504.33;5028871;56;1138782;-67
2023/02/13 14:33:33;;;;;;;7.27;3.90;;;;;;;5.97;100.00;102517.91;5017747;56;1138869;-70
2023/02/13 14:38:40;;;;;;;14.43;6.93;;;;;;;5.95;100.00;102513.17;4981706;56;1136841;-67
2023/02/13 14:43:54;;;;;;;11.40;5.23;;;;;;;5.96;100.00;102514.01;4961079;56;1138862;-67
2023/02/13 14:49:06;;;;;;;86.60;57.60;;;;;;;5.96;100.00;102505.67;5031092;55;1138868;-69
2023/02/13 14:54:31;;;;;;;259.37;114.13;;;;;;;5.98;100.00;102515.70;4988604;56;1142867;-68
2023/02/13 14:59:41;;;;;;;306.13;149.70;;;;;;;5.94;100.00;102514.08;4948743;56;1145217;-69
2023/02/13 15:04:51;;;;;;;153.12;70.17;;;;;;;5.95;100.00;102517.56;4990975;56;1145244;-69
2023/02/13 15:10:04;;;;;;;27.80;13.87;;;;;;;5.93;100.00;102523.31;5006051;56;1143263;-67
2023/02/13 15:15:24;;;;;;;;;;;;;;;5.91;100.00;102516.78;4995758;57;1141003;-70
2023/02/13 15:20:33;;;;;;;19.27;8.55;;;;;;;5.89;100.00;102513.33;4965005;57;974190;-67
2023/02/13 15:25:40;;;;;;;11.30;7.07;;;;;;;5.89;100.00;102520.34;4975529;57;1136715;-67
2023/02/13 15:31:09;;;;;;;10.80;6.90;;;;;;;5.86;100.00;102508.11;4990534;57;1138848;-70
2023/02/13 15:36:25;;;;;;;20.53;8.13;;;;;;;5.85;100.00;102497.65;4930056;57;1139003;-71
2023/02/13 15:41:41;;;;;;;19.73;10.03;;;;;;;5.82;100.00;102489.84;4971320;57;1138857;-69
2023/02/13 15:46:52;;;;;;;18.33;7.93;;;;;;;5.78;100.00;102495.66;4972640;57;1140951;-67
2023/02/13 15:52:08;;;;;;;19.97;9.13;;;;;;;5.76;100.00;102497.91;4938720;58;1138970;-69
2023/02/13 15:57:14;;;;;;;15.83;7.33;;;;;;;5.73;100.00;102488.34;4946918;57;1138858;-69
2023/02/13 16:02:35;;;;;;;20.75;8.90;;;;;;;5.72;100.00;102494.48;4989950;57;1139877;-67
2023/02/13 16:07:53;;;;;;;26.40;10.53;;;;;;;5.71;100.00;102507.65;4903727;57;1239519;-68
2023/02/13 16:13:06;;;;;;;27.63;12.87;;;;;;;5.71;100.00;102503.27;4930993;58;1141053;-70
2023/02/13 16:18:21;;;;;;;28.53;12.07;;;;;;;5.72;100.00;102508.06;4834680;58;1141044;-69
2023/02/13 16:23:28;;;;;;;23.80;11.80;;;;;;;5.70;100.00;102502.84;4918499;58;1141125;-67
2023/02/13 16:28:34;;;;;;;14.13;8.38;;;;;;;5.69;100.00;102501.57;4927406;58;1141105;-68
2023/02/13 16:33:42;;;;;;;14.43;8.05;;;;;;;5.64;100.00;102489.90;4862499;59;1139008;-69
2023/02/13 16:38:50;;;;;;;21.23;9.07;;;;;;;5.62;100.00;102488.63;4931112;58;1138889;-70
2023/02/13 16:44:23;;;;;;;14.90;7.87;;;;;;;5.60;100.00;102489.56;5031608;56;1139087;-67
2023/02/13 16:49:35;;;;;;;44.47;18.00;;;;;;;5.58;100.00;102492.67;5028532;56;1139191;-68
2023/02/13 16:54:56;;;;;;;27.90;12.37;;;;;;;5.58;100.00;102498.78;4912871;57;1143137;-70
2023/02/13 17:00:26;;;;;;;31.80;14.27;;;;;;;5.58;100.00;102512.35;4926625;57;1140962;-68
2023/02/13 17:05:33;;;;;;;19.27;9.78;;;;;;;5.55;100.00;102501.92;4927665;57;1140884;-70
2023/02/13 17:10:45;;;;;;;17.70;7.13;;;;;;;5.57;100.00;102521.98;4921643;57;1164261;-68
2023/02/13 17:15:50;;;;;;;22.45;9.48;;;;;;;5.57;100.00;102519.36;4878737;58;1238322;-66
2023/02/13 17:20:56;;;;;;;15.73;6.93;;;;;;;5.57;100.00;102529.86;4906158;58;1138892;-71
2023/02/13 17:26:08;;;;;;;20.13;8.63;;;;;;;5.54;100.00;102518.57;4952250;57;1138876;-70
2023/02/13 17:31:14;;;;;;;18.27;8.53;;;;;;;5.54;100.00;102519.44;4954595;58;1139066;-70
2023/02/13 17:36:20;;;;;;;23.23;9.20;;;;;;;5.50;100.00;102505.14;4933715;58;1138909;-69
2023/02/13 17:41:25;;;;;;;18.00;8.33;;;;;;;5.48;100.00;102522.23;4931510;58;1138917;-69
2023/02/13 17:46:31;;;;;;;29.12;12.28;;;;;;;5.45;100.00;102521.44;4927860;58;1139359;-68
2023/02/13 17:51:40;;;;;;;78.40;27.80;;;;;;;5.42;100.00;102527.61;4932127;58;1140944;-69
2023/02/13 17:56:45;;;;;;;35.47;16.67;;;;;;;5.42;100.00;102528.92;4880641;57;1140882;-68
2023/02/13 18:01:51;;;;;;;53.80;24.63;;;;;;;5.42;100.00;102525.44;4852297;58;1256089;-68
2023/02/13 18:07:03;;;;;;;172.73;74.10;;;;;;;5.40;100.00;102525.47;4895452;58;1140871;-68
2023/02/13 18:12:22;;;;;;;48.63;19.40;;;;;;;5.42;100.00;102525.44;4897781;58;1143857;-65
2023/02/13 18:17:29;;;;;;;53.80;22.97;;;;;;;5.40;100.00;102519.36;4921806;58;1140884;-70
2023/02/13 18:22:57;;;;;;;46.95;22.95;;;;;;;5.40;100.00;102515.42;4941033;57;1141250;-69
2023/02/13 18:28:02;;;;;;;43.47;10.20;;;;;;;5.36;100.00;102530.38;4932228;58;1244763;-69
2023/02/13 18:33:15;;;;;;;22.23;9.93;;;;;;;5.39;100.00;102536.00;4928502;58;1141243;-71
2023/02/13 18:38:29;;;;;;;34.40;16.23;;;;;;;5.38;100.00;102540.83;4932595;58;1139482;-70
2023/02/13 18:43:38;;;;;;;39.40;17.53;;;;;;;5.34;100.00;102538.75;4775719;58;1141366;-69
2023/02/13 18:48:44;;;;;;;17.53;8.50;;;;;;;5.34;100.00;102537.45;4911832;58;1141114;-69
2023/02/13 18:53:50;;;;;;;7.40;3.77;;;;;;;5.31;100.00;102525.70;4852386;58;1138929;-69
2023/02/13 18:58:56;;;;;;;12.60;5.00;;;;;;;5.25;100.00;102520.14;4995506;57;1136730;-66
2023/02/13 19:04:02;;;;;;;7.33;4.20;;;;;;;5.18;100.00;102523.83;4985639;57;1138919;-67
2023/02/13 19:09:09;;;;;;;14.87;6.20;;;;;;;5.17;100.00;102541.77;4813717;58;1136939;-70
2023/02/13 19:14:16;;;;;;;49.23;17.50;;;;;;;5.16;100.00;102540.04;4831964;60;1138797;-71
2023/02/13 19:19:22;;;;;;;16.17;5.53;;;;;;;5.14;100.00;102545.77;5015203;57;1141126;-70
2023/02/13 19:24:28;;;;;;;9.90;5.43;;;;;;;5.15;100.00;102556.67;5014635;57;1138900;-67
2023/02/13 19:29:34;;;;;;;28.98;10.03;;;;;;;5.14;100.00;102558.87;4907280;58;1137007;-71
2023/02/13 19:34:39;;;;;;;27.62;10.85;;;;;;;5.12;100.00;102558.05;4899113;58;1140997;-70
2023/02/13 19:39:45;;;;;;;44.30;15.93;;;;;;;5.12;100.00;102560.67;4911096;57;1141015;-68
2023/02/13 19:44:58;;;;;;;149.70;68.60;;;;;;;5.13;100.00;102566.33;4925454;57;1140971;-72
2023/02/13 19:50:16;;;;;;;28.97;13.27;;;;;;;5.15;100.00;102567.61;4867556;57;1143375;-71
2023/02/13 19:55:24;;;;;;;26.37;8.77;;;;;;;5.13;100.00;102570.72;4814062;59;1140886;-67
2023/02/13 20:00:29;;;;;;;24.63;8.50;;;;;;;5.13;100.00;102572.89;4843790;58;1138935;-67
2023/02/13 20:05:41;;;;;;;12.17;5.43;;;;;;;5.14;100.00;102571.12;4876331;57;1138993;-67
2023/02/13 20:10:47;;;;;;;12.17;4.37;;;;;;;5.10;100.00;102580.81;4926035;59;1138939;-71
2023/02/13 20:15:53;;;;;;;10.37;4.20;;;;;;;5.07;100.00;102579.56;4907019;59;1138813;-68
2023/02/13 20:20:58;;;;;;;11.30;4.05;;;;;;;5.05;100.00;102584.42;4845630;59;1138862;-69
2023/02/13 20:26:09;;;;;;;12.70;3.50;;;;;;;5.03;100.00;102600.67;4844286;59;1138888;-67
2023/02/13 20:31:19;;;;;;;10.03;3.90;;;;;;;4.98;100.00;102604.69;4825471;59;1138857;-68
2023/02/13 20:36:31;;;;;;;8.07;3.43;;;;;;;4.91;100.00;102597.39;4825471;58;1138918;-68
2023/02/13 20:41:38;;;;;;;8.43;3.90;;;;;;;4.85;100.00;102600.16;4935218;57;1137072;-69
2023/02/13 20:46:44;;;;;;;6.60;3.60;;;;;;;4.75;100.00;102596.42;4952438;57;1136928;-68
2023/02/13 20:51:50;;;;;;;7.83;2.80;;;;;;;4.68;100.00;102607.49;4873689;58;1136845;-71
2023/02/13 20:56:56;;;;;;;9.80;4.80;;;;;;;4.69;100.00;102614.91;4931061;58;1139145;-69
2023/02/13 21:02:03;;;;;;;14.73;3.90;;;;;;;4.65;100.00;102614.09;4950888;58;1136701;-70
2023/02/13 21:07:09;;;;;;;12.03;4.17;;;;;;;4.60;100.00;102619.86;4927439;58;1138848;-69
2023/02/13 21:12:15;;;;;;;13.43;5.50;;;;;;;4.53;100.00;102625.69;4933363;57;1138926;-69
2023/02/13 21:17:21;;;;;;;16.27;6.57;;;;;;;4.51;100.00;102624.84;4932037;58;1140954;-70
2023/02/13 21:22:26;;;;;;;30.50;9.10;;;;;;;4.48;100.00;102633.20;4945810;57;1139182;-68
2023/02/13 21:27:33;;;;;;;28.20;8.83;;;;;;;4.42;100.00;102631.58;4987913;56;1139062;-69
2023/02/13 21:32:39;;;;;;;24.97;6.53;;;;;;;4.36;100.00;102643.47;5001279;56;1139146;-70
2023/02/13 21:37:45;;;;;;;19.87;5.80;;;;;;;4.31;100.00;102641.81;4950789;57;1138823;-68
2023/02/13 21:42:53;;;;;;;17.43;6.63;;;;;;;4.29;100.00;102640.53;4981647;56;1141175;-69
2023/02/13 21:47:59;;;;;;;11.38;3.87;;;;;;;4.24;100.00;102645.00;4989572;57;1138987;-71
2023/02/13 21:53:04;;;;;;;15.43;4.20;;;;;;;4.16;100.00;102645.12;4982330;56;1138789;-68
2023/02/13 21:58:10;;;;;;;5.40;3.20;;;;;;;4.08;100.00;102644.39;4960684;56;1138781;-70
2023/02/13 22:03:16;;;;;;;16.37;3.27;;;;;;;4.02;100.00;102651.03;5006419;56;1136871;-67
2023/02/13 22:08:22;;;;;;;8.40;3.17;;;;;;;3.98;100.00;102648.48;5000385;56;1140884;-70
2023/02/13 22:13:28;;;;;;;10.80;3.90;;;;;;;3.85;100.00;102638.21;5000893;57;1136878;-66
2023/02/13 22:18:37;;;;;;;14.58;4.05;;;;;;;3.72;100.00;102634.50;5001069;57;1138828;-68
2023/02/13 22:23:45;;;;;;;10.90;3.77;;;;;;;3.64;100.00;102632.47;5020475;56;1139203;-70
2023/02/13 22:28:52;;;;;;;7.43;3.60;;;;;;;3.57;100.00;102634.73;4949699;56;1138823;-70
2023/02/13 22:33:57;;;;;;;7.90;3.70;;;;;;;3.49;100.00;102636.17;5001159;56;1136773;-68
2023/02/13 22:39:03;;;;;;;7.33;3.53;;;;;;;3.48;100.00;102639.67;5020247;56;1136713;-70
2023/02/13 22:44:09;;;;;;;9.93;4.23;;;;;;;3.43;100.00;102635.80;5002480;56;1136787;-71
2023/02/13 22:49:15;;;;;;;9.05;4.62;;;;;;;3.44;100.00;102632.75;4959198;55;1136860;-69
2023/02/13 22:54:21;;;;;;;7.60;4.23;;;;;;;3.43;100.00;102628.40;5003561;55;1136835;-67
2023/02/13 22:59:27;;;;;;;13.85;5.05;;;;;;;3.43;100.00;102636.25;5000537;56;1137428;-71
2023/02/13 23:04:33;;;;;;;9.70;5.22;;;;;;;3.43;100.00;102636.25;5001685;56;1140916;-68
2023/02/13 23:09:39;;;;;;;16.80;6.47;;;;;;;3.43;100.00;102634.94;5020785;56;1136987;-70
2023/02/13 23:14:44;;;;;;;13.62;5.62;;;;;;;3.44;100.00;102642.77;5000874;56;1138954;-68
2023/02/13 23:19:50;;;;;;;11.20;5.60;;;;;;;3.46;100.00;102638.83;5000566;56;1138744;-68
2023/02/13 23:24:56;;;;;;;11.80;5.27;;;;;;;3.46;100.00;102641.44;4998904;56;1138777;-71
2023/02/13 23:30:03;;;;;;;9.13;5.07;;;;;;;3.49;100.00;102640.96;4934210;58;1138926;-69
2023/02/13 23:35:09;;;;;;;14.80;5.92;;;;;;;3.55;100.00;102643.91;4934110;58;1136907;-67
2023/02/13 23:40:16;;;;;;;13.30;5.03;;;;;;;3.57;100.00;102635.59;4950318;58;1138866;-67
2023/02/13 23:45:22;;;;;;;14.43;5.67;;;;;;;3.62;100.00;102634.23;4931248;58;1138880;-66
2023/02/13 23:50:30;;;;;;;10.83;5.93;;;;;;;3.66;100.00;102634.62;4911239;58;1138911;-70
2023/02/13 23:55:36;;;;;;;12.80;6.12;;;;;;;3.66;100.00;102634.17;4934644;57;1139048;-66
